Maricopa, California
Current Conditions -  °F | °C
As of 8:54 AM on Wednesday 22 Oct 2014 (Local Time) from KBFL Reporting Station
Clear Clear  
Wind Chill: 60°   Ceiling: Unl
Heat Index: 60°   Visibility: 10mi
Dew Point: 41°   Wind: 8mph
Humidity: 49%   Direction: 150°SSE
Pressure: 30.07"   Gusts: NA
Location:  35.06°N, 119.4°W
Report Text: KBFL 221554Z 15007KT 10SM CLR 16/05 A3007 RMK AO2 SLP179 T01560050
Loading
Personal Weather Stations






























Interactive Weather Map
Tropical Storm Tracking
New forecast layout! Learn more

10-Day Weather Forecast

Advertisements
Track Severe Weather on mobile